Bookmark and Share
Track history (hours):
 

Sns 251

Last reported at 2014-Mar-16 10:33 UTC. Time now 2014-Apr-19 12:05 UTC.
Position N 43°03' E 006°28'.
Warning: this ship's position is 34 days out of date.

Length 10 m.

Type: Pilot. MMSI: 227002730.

NotesDate/timePositionNaut miles runAvg speedWind from/ knotsBaromVisibWave heightAir tempDewpointWater temp
2014-Mar-16 10:33N 43°03' E 006°28'  
2014-Mar-13 03:33N 43°08' E 006°22'0 0.0
2014-Mar-13 02:30N 43°08' E 006°22'0 0.0
2014-Mar-13 01:33N 43°08' E 006°22'0 0.0
2014-Mar-13 00:08N 43°08' E 006°22'0 0.0
2014-Mar-12 22:20N 43°08' E 006°22'0 0.0
2014-Mar-12 21:13N 43°08' E 006°22'1 1.7
2014-Mar-12 20:33N 43°07' E 006°22'1 0.1
2014-Mar-12 11:30N 43°08' E 006°22'0 0.0
2014-Mar-12 06:07N 43°08' E 006°22'0 0.0
2014-Mar-12 04:21N 43°08' E 006°22'0 0.0
2014-Mar-12 03:33N 43°08' E 006°22'0 0.0
2014-Mar-12 02:32N 43°08' E 006°22'0 0.0
2014-Mar-12 01:33N 43°08' E 006°22'0 0.0
2014-Mar-12 00:32N 43°08' E 006°22'0 0.0
2014-Mar-11 23:31N 43°08' E 006°22'0 0.0
2014-Mar-11 07:07N 43°08' E 006°22'0 0.0
2014-Mar-11 06:33N 43°08' E 006°22'0 0.0
2014-Mar-11 05:31N 43°08' E 006°22'0 0.0
2014-Mar-11 04:15N 43°08' E 006°22'0 0.0
2014-Mar-11 03:25N 43°08' E 006°22'0 0.0
2014-Mar-11 02:33N 43°08' E 006°22'0 0.0
2014-Mar-11 01:30N 43°08' E 006°22'0 0.0
2014-Mar-11 00:33N 43°08' E 006°22'0 0.0
2014-Mar-10 23:32N 43°08' E 006°22'0 0.0
2014-Mar-10 22:33N 43°08' E 006°22'0 0.0
2014-Mar-10 21:09N 43°08' E 006°22'0 0.0
2014-Mar-10 20:33N 43°08' E 006°22'0 0.0
2014-Mar-10 19:08N 43°08' E 006°22'0 0.0
2014-Mar-10 18:32N 43°08' E 006°22'0 0.0
2014-Mar-10 17:29N 43°08' E 006°22'0 0.0
2014-Mar-10 03:33N 43°08' E 006°22'0 0.0
2014-Mar-10 01:33N 43°08' E 006°22'0 0.0
2014-Mar-09 22:31N 43°08' E 006°22'0 0.0
2014-Mar-09 18:31N 43°08' E 006°22'0 0.0
2014-Mar-09 17:31N 43°08' E 006°22'0 0.0
2014-Mar-09 10:15N 43°08' E 006°22'1 1.0
2014-Mar-09 09:33N 43°07' E 006°22'0 0.3
2014-Mar-09 08:31N 43°07' E 006°22'1 0.5
2014-Mar-09 06:29N 43°08' E 006°22'0 0.0
2014-Mar-09 05:14N 43°08' E 006°22'0 0.0
2014-Mar-09 03:27N 43°08' E 006°22'0 0.0
2014-Mar-09 01:17N 43°08' E 006°22'1 0.0
2014-Mar-08 10:33N 43°08' E 006°22'4 3.9
2014-Mar-08 09:31N 43°08' E 006°27'0 0.1
2014-Mar-08 08:33N 43°09' E 006°27'4 0.2
2014-Mar-07 13:26N 43°08' E 006°22'1 0.0
2014-Mar-06 21:33N 43°08' E 006°22'1 0.5
2014-Mar-06 20:33N 43°07' E 006°22'1 0.5
2014-Mar-06 18:32N 43°08' E 006°22'  

Dump ship's entire track history

sailing weather and tide predictions

Sns 251 — FN6543 — position and weather